Clinton Township, Michigan
Current Conditions -  °F | °C
As of 7:55 PM on Wednesday 22 Oct 2014 (Local Time) from KMTC Reporting Station
Few Clouds Few Clouds  
Wind Chill: 39°   Ceiling: Unl
Heat Index: 44°   Visibility: 12mi
Dew Point: 39°   Wind: 10mph
Humidity: 84%   Direction: 40°NE
Pressure: 30.26"   Gusts: NA
Location:  42.6°N, 82.95°W
Report Text: KMTC 222355Z 04009KT 12SM FEW033 07/04 A3026 RMK SLP261 T00670041 10136 20067 53002
Loading
Personal Weather Stations






























Interactive Weather Map
Tropical Storm Tracking
New forecast layout! Learn more

10-Day Weather Forecast

Advertisements
Track Severe Weather on mobile